Terminal Aerodrome Forecast
Issued by NWS

Home | Current Version | Previous Version | Text Only | Print | Product List | Glossary On
Versions: 1 2 3 4 5 6 7 8 9 10 11 12 13 14 15 16 17 18
000
FTUS46 KMTR 180200 CCA
TAFSTS
TAF AMD
KSTS 180243Z 1803/1824 11005KT P6SM -RA OVC060
     FM181200 VRB03KT 2SM BR BKN006 BKN015
     FM181900 15003KT P6SM FEW008 BKN025=

USA.gov is the U.S. government's official web portal to all federal, state and local government web resources and services.